sensor_id;sensor_type;location;lat;lon;timestamp;temperature;humidity
70534;SHT31;58088;51.186;17.130;2023-03-01T00:01:54;-0.66;66.57
70534;SHT31;58088;51.186;17.130;2023-03-01T00:04:20;-0.70;66.69
70534;SHT31;58088;51.186;17.130;2023-03-01T00:06:47;-0.69;66.65
70534;SHT31;58088;51.186;17.130;2023-03-01T00:09:13;-0.66;66.63
70534;SHT31;58088;51.186;17.130;2023-03-01T00:11:41;-0.63;66.60
70534;SHT31;58088;51.186;17.130;2023-03-01T00:14:08;-0.64;66.73
70534;SHT31;58088;51.186;17.130;2023-03-01T00:16:35;-0.66;66.98
70534;SHT31;58088;51.186;17.130;2023-03-01T00:19:07;-0.64;66.99
70534;SHT31;58088;51.186;17.130;2023-03-01T00:21:39;-0.63;67.07
70534;SHT31;58088;51.186;17.130;2023-03-01T00:24:06;-0.63;66.92
70534;SHT31;58088;51.186;17.130;2023-03-01T00:26:34;-0.64;66.82
70534;SHT31;58088;51.186;17.130;2023-03-01T00:29:00;-0.66;66.93
70534;SHT31;58088;51.186;17.130;2023-03-01T00:31:28;-0.66;67.06
70534;SHT31;58088;51.186;17.130;2023-03-01T00:34:02;-0.66;67.24
70534;SHT31;58088;51.186;17.130;2023-03-01T00:36:31;-0.66;67.09
70534;SHT31;58088;51.186;17.130;2023-03-01T00:39:02;-0.68;67.15
70534;SHT31;58088;51.186;17.130;2023-03-01T00:41:31;-0.70;67.03
70534;SHT31;58088;51.186;17.130;2023-03-01T00:43:59;-0.74;66.97
70534;SHT31;58088;51.186;17.130;2023-03-01T00:46:26;-0.78;67.07
70534;SHT31;58088;51.186;17.130;2023-03-01T00:48:53;-0.80;67.18
70534;SHT31;58088;51.186;17.130;2023-03-01T00:51:21;-0.80;67.18
70534;SHT31;58088;51.186;17.130;2023-03-01T00:53:52;-0.81;66.99
70534;SHT31;58088;51.186;17.130;2023-03-01T00:56:21;-0.83;66.77
70534;SHT31;58088;51.186;17.130;2023-03-01T00:58:47;-0.88;66.53
70534;SHT31;58088;51.186;17.130;2023-03-01T01:01:19;-0.90;66.60
70534;SHT31;58088;51.186;17.130;2023-03-01T01:03:50;-0.92;66.62
70534;SHT31;58088;51.186;17.130;2023-03-01T01:06:21;-0.93;66.61
70534;SHT31;58088;51.186;17.130;2023-03-01T01:08:56;-0.96;66.65
70534;SHT31;58088;51.186;17.130;2023-03-01T01:11:23;-0.98;66.70
70534;SHT31;58088;51.186;17.130;2023-03-01T01:13:54;-0.99;66.78
70534;SHT31;58088;51.186;17.130;2023-03-01T01:16:22;-1.00;67.01
70534;SHT31;58088;51.186;17.130;2023-03-01T01:18:52;-1.02;66.79
70534;SHT31;58088;51.186;17.130;2023-03-01T01:21:21;-1.04;66.73
70534;SHT31;58088;51.186;17.130;2023-03-01T01:23:50;-1.07;66.66
70534;SHT31;58088;51.186;17.130;2023-03-01T01:26:19;-1.08;66.60
70534;SHT31;58088;51.186;17.130;2023-03-01T01:28:49;-1.11;66.67
70534;SHT31;58088;51.186;17.130;2023-03-01T01:31:17;-1.14;66.77
70534;SHT31;58088;51.186;17.130;2023-03-01T01:33:45;-1.17;66.84
70534;SHT31;58088;51.186;17.130;2023-03-01T01:36:12;-1.19;66.95
70534;SHT31;58088;51.186;17.130;2023-03-01T01:38:38;-1.24;67.00
70534;SHT31;58088;51.186;17.130;2023-03-01T01:41:07;-1.31;66.97
70534;SHT31;58088;51.186;17.130;2023-03-01T01:43:41;-1.34;66.94
70534;SHT31;58088;51.186;17.130;2023-03-01T01:46:37;-1.36;66.93
70534;SHT31;58088;51.186;17.130;2023-03-01T01:49:11;-1.37;66.87
70534;SHT31;58088;51.186;17.130;2023-03-01T01:51:51;-1.38;67.05
70534;SHT31;58088;51.186;17.130;2023-03-01T01:54:53;-1.39;67.19
70534;SHT31;58088;51.186;17.130;2023-03-01T01:57:45;-1.39;67.19
70534;SHT31;58088;51.186;17.130;2023-03-01T02:00:19;-1.36;67.10
70534;SHT31;58088;51.186;17.130;2023-03-01T02:03:08;-1.33;67.12
70534;SHT31;58088;51.186;17.130;2023-03-01T02:08:19;-1.27;67.19
70534;SHT31;58088;51.186;17.130;2023-03-01T02:10:49;-1.26;67.24
70534;SHT31;58088;51.186;17.130;2023-03-01T02:13:17;-1.17;67.18
70534;SHT31;58088;51.186;17.130;2023-03-01T02:15:43;-1.09;67.17
70534;SHT31;58088;51.186;17.130;2023-03-01T02:18:10;-1.02;66.94
70534;SHT31;58088;51.186;17.130;2023-03-01T02:20:43;-0.97;66.84
70534;SHT31;58088;51.186;17.130;2023-03-01T02:23:36;-0.89;66.66
70534;SHT31;58088;51.186;17.130;2023-03-01T02:26:23;-0.89;66.48
70534;SHT31;58088;51.186;17.130;2023-03-01T02:29:02;-0.91;66.52
70534;SHT31;58088;51.186;17.130;2023-03-01T02:31:31;-0.91;66.70
70534;SHT31;58088;51.186;17.130;2023-03-01T02:34:07;-0.92;66.70
70534;SHT31;58088;51.186;17.130;2023-03-01T02:36:39;-0.96;66.73
70534;SHT31;58088;51.186;17.130;2023-03-01T02:39:12;-1.01;66.79
70534;SHT31;58088;51.186;17.130;2023-03-01T02:41:48;-1.03;66.81
70534;SHT31;58088;51.186;17.130;2023-03-01T02:44:18;-1.03;67.06
70534;SHT31;58088;51.186;17.130;2023-03-01T02:46:49;-1.00;67.01
70534;SHT31;58088;51.186;17.130;2023-03-01T02:49:22;-0.96;67.04
70534;SHT31;58088;51.186;17.130;2023-03-01T02:54:54;-0.85;66.94
70534;SHT31;58088;51.186;17.130;2023-03-01T02:57:53;-0.84;66.80
70534;SHT31;58088;51.186;17.130;2023-03-01T03:00:23;-0.84;66.70
70534;SHT31;58088;51.186;17.130;2023-03-01T03:02:55;-0.84;66.63
70534;SHT31;58088;51.186;17.130;2023-03-01T03:05:27;-0.86;66.47
70534;SHT31;58088;51.186;17.130;2023-03-01T03:07:57;-0.89;66.47
70534;SHT31;58088;51.186;17.130;2023-03-01T03:10:29;-0.95;66.21
70534;SHT31;58088;51.186;17.130;2023-03-01T03:13:02;-1.01;66.11
70534;SHT31;58088;51.186;17.130;2023-03-01T03:15:32;-1.10;66.21
70534;SHT31;58088;51.186;17.130;2023-03-01T03:18:02;-1.21;66.43
70534;SHT31;58088;51.186;17.130;2023-03-01T03:20:31;-1.27;66.55
70534;SHT31;58088;51.186;17.130;2023-03-01T03:22:58;-1.32;66.41
70534;SHT31;58088;51.186;17.130;2023-03-01T03:25:26;-1.37;66.54
70534;SHT31;58088;51.186;17.130;2023-03-01T03:27:55;-1.40;66.63
70534;SHT31;58088;51.186;17.130;2023-03-01T03:30:24;-1.43;66.61
70534;SHT31;58088;51.186;17.130;2023-03-01T03:32:54;-1.44;66.67
70534;SHT31;58088;51.186;17.130;2023-03-01T03:35:26;-1.46;66.53
70534;SHT31;58088;51.186;17.130;2023-03-01T03:37:59;-1.51;66.50
70534;SHT31;58088;51.186;17.130;2023-03-01T03:40:35;-1.56;66.59
70534;SHT31;58088;51.186;17.130;2023-03-01T03:43:07;-1.58;66.64
70534;SHT31;58088;51.186;17.130;2023-03-01T03:45:36;-1.58;66.73
70534;SHT31;58088;51.186;17.130;2023-03-01T03:48:03;-1.53;66.59
70534;SHT31;58088;51.186;17.130;2023-03-01T03:50:32;-1.50;66.55
70534;SHT31;58088;51.186;17.130;2023-03-01T03:53:00;-1.44;66.45
70534;SHT31;58088;51.186;17.130;2023-03-01T03:55:27;-1.39;66.44
70534;SHT31;58088;51.186;17.130;2023-03-01T03:57:59;-1.33;66.53
70534;SHT31;58088;51.186;17.130;2023-03-01T04:00:33;-1.33;66.50
70534;SHT31;58088;51.186;17.130;2023-03-01T04:03:02;-1.33;66.42
70534;SHT31;58088;51.186;17.130;2023-03-01T04:05:29;-1.30;66.22
70534;SHT31;58088;51.186;17.130;2023-03-01T04:07:56;-1.32;66.04
70534;SHT31;58088;51.186;17.130;2023-03-01T04:10:33;-1.38;65.98
70534;SHT31;58088;51.186;17.130;2023-03-01T04:13:10;-1.45;66.18
70534;SHT31;58088;51.186;17.130;2023-03-01T04:15:39;-1.50;66.45
70534;SHT31;58088;51.186;17.130;2023-03-01T04:18:06;-1.52;66.70
70534;SHT31;58088;51.186;17.130;2023-03-01T04:20:35;-1.54;66.61
70534;SHT31;58088;51.186;17.130;2023-03-01T04:23:05;-1.56;66.68
70534;SHT31;58088;51.186;17.130;2023-03-01T04:25:42;-1.57;66.70
70534;SHT31;58088;51.186;17.130;2023-03-01T04:28:32;-1.54;66.79
70534;SHT31;58088;51.186;17.130;2023-03-01T04:31:12;-1.51;66.95
70534;SHT31;58088;51.186;17.130;2023-03-01T04:33:53;-1.45;67.04
70534;SHT31;58088;51.186;17.130;2023-03-01T04:36:23;-1.39;66.78
70534;SHT31;58088;51.186;17.130;2023-03-01T04:38:52;-1.35;66.53
70534;SHT31;58088;51.186;17.130;2023-03-01T04:41:22;-1.33;66.44
70534;SHT31;58088;51.186;17.130;2023-03-01T04:43:50;-1.31;66.38
70534;SHT31;58088;51.186;17.130;2023-03-01T04:46:17;-1.30;66.21
70534;SHT31;58088;51.186;17.130;2023-03-01T04:48:45;-1.32;66.25
70534;SHT31;58088;51.186;17.130;2023-03-01T04:51:12;-1.35;66.40
70534;SHT31;58088;51.186;17.130;2023-03-01T04:53:40;-1.38;66.50
70534;SHT31;58088;51.186;17.130;2023-03-01T04:56:07;-1.44;66.50
70534;SHT31;58088;51.186;17.130;2023-03-01T04:58:33;-1.48;66.47
70534;SHT31;58088;51.186;17.130;2023-03-01T05:01:00;-1.50;66.42
70534;SHT31;58088;51.186;17.130;2023-03-01T05:03:26;-1.54;66.32
70534;SHT31;58088;51.186;17.130;2023-03-01T05:05:53;-1.59;66.38
70534;SHT31;58088;51.186;17.130;2023-03-01T05:08:25;-1.64;66.45
70534;SHT31;58088;51.186;17.130;2023-03-01T05:10:52;-1.67;66.34
70534;SHT31;58088;51.186;17.130;2023-03-01T05:13:19;-1.70;66.33
70534;SHT31;58088;51.186;17.130;2023-03-01T05:15:56;-1.75;66.39
70534;SHT31;58088;51.186;17.130;2023-03-01T05:18:26;-1.80;66.39
70534;SHT31;58088;51.186;17.130;2023-03-01T05:20:56;-1.86;66.46
70534;SHT31;58088;51.186;17.130;2023-03-01T05:23:41;-1.88;67.12
70534;SHT31;58088;51.186;17.130;2023-03-01T05:26:08;-1.95;67.09
70534;SHT31;58088;51.186;17.130;2023-03-01T05:28:35;-1.97;67.10
70534;SHT31;58088;51.186;17.130;2023-03-01T05:31:02;-1.99;66.98
70534;SHT31;58088;51.186;17.130;2023-03-01T05:33:28;-2.01;66.91
70534;SHT31;58088;51.186;17.130;2023-03-01T05:35:54;-2.03;66.91
70534;SHT31;58088;51.186;17.130;2023-03-01T05:38:25;-2.02;67.01
70534;SHT31;58088;51.186;17.130;2023-03-01T05:40:51;-1.99;67.03
70534;SHT31;58088;51.186;17.130;2023-03-01T05:43:17;-1.95;66.89
70534;SHT31;58088;51.186;17.130;2023-03-01T05:45:44;-1.94;66.98
70534;SHT31;58088;51.186;17.130;2023-03-01T05:48:11;-1.88;67.01
70534;SHT31;58088;51.186;17.130;2023-03-01T05:50:43;-1.81;66.90
70534;SHT31;58088;51.186;17.130;2023-03-01T05:53:12;-1.74;66.69
70534;SHT31;58088;51.186;17.130;2023-03-01T05:55:45;-1.68;66.52
70534;SHT31;58088;51.186;17.130;2023-03-01T05:58:14;-1.67;66.53
70534;SHT31;58088;51.186;17.130;2023-03-01T06:00:43;-1.66;66.50
70534;SHT31;58088;51.186;17.130;2023-03-01T06:03:13;-1.64;66.48
70534;SHT31;58088;51.186;17.130;2023-03-01T06:05:42;-1.61;66.49
70534;SHT31;58088;51.186;17.130;2023-03-01T06:08:10;-1.61;66.57
70534;SHT31;58088;51.186;17.130;2023-03-01T06:10:38;-1.58;66.60
70534;SHT31;58088;51.186;17.130;2023-03-01T06:13:04;-1.41;66.62
70534;SHT31;58088;51.186;17.130;2023-03-01T06:15:30;-1.11;66.62
70534;SHT31;58088;51.186;17.130;2023-03-01T06:17:57;-0.79;66.47
70534;SHT31;58088;51.186;17.130;2023-03-01T06:20:24;-0.42;66.16
70534;SHT31;58088;51.186;17.130;2023-03-01T06:22:52;-0.04;65.94
70534;SHT31;58088;51.186;17.130;2023-03-01T06:25:20;0.38;65.73
70534;SHT31;58088;51.186;17.130;2023-03-01T06:27:49;0.80;65.31
70534;SHT31;58088;51.186;17.130;2023-03-01T06:30:18;1.24;65.14
70534;SHT31;58088;51.186;17.130;2023-03-01T06:32:46;1.65;64.76
70534;SHT31;58088;51.186;17.130;2023-03-01T06:35:16;2.00;64.28
70534;SHT31;58088;51.186;17.130;2023-03-01T06:37:44;2.33;63.90
70534;SHT31;58088;51.186;17.130;2023-03-01T06:40:12;2.66;63.31
70534;SHT31;58088;51.186;17.130;2023-03-01T06:42:40;2.94;62.72
70534;SHT31;58088;51.186;17.130;2023-03-01T06:45:10;3.17;62.29
70534;SHT31;58088;51.186;17.130;2023-03-01T06:47:37;3.40;61.91
70534;SHT31;58088;51.186;17.130;2023-03-01T06:50:03;3.64;61.67
70534;SHT31;58088;51.186;17.130;2023-03-01T06:52:30;3.85;61.28
70534;SHT31;58088;51.186;17.130;2023-03-01T06:54:57;4.08;60.96
70534;SHT31;58088;51.186;17.130;2023-03-01T06:57:23;4.38;60.58
70534;SHT31;58088;51.186;17.130;2023-03-01T06:59:49;4.57;60.18
70534;SHT31;58088;51.186;17.130;2023-03-01T07:02:16;4.64;60.06
70534;SHT31;58088;51.186;17.130;2023-03-01T07:04:42;4.84;59.80
70534;SHT31;58088;51.186;17.130;2023-03-01T07:07:11;4.97;59.58
70534;SHT31;58088;51.186;17.130;2023-03-01T07:09:37;5.14;59.13
70534;SHT31;58088;51.186;17.130;2023-03-01T07:12:03;5.31;58.60
70534;SHT31;58088;51.186;17.130;2023-03-01T07:14:30;5.37;58.62
70534;SHT31;58088;51.186;17.130;2023-03-01T07:16:56;5.51;58.53
70534;SHT31;58088;51.186;17.130;2023-03-01T07:19:22;5.60;58.49
70534;SHT31;58088;51.186;17.130;2023-03-01T07:21:49;5.72;58.54
70534;SHT31;58088;51.186;17.130;2023-03-01T07:24:15;5.88;58.37
70534;SHT31;58088;51.186;17.130;2023-03-01T07:26:41;6.04;57.88
70534;SHT31;58088;51.186;17.130;2023-03-01T07:29:09;6.01;57.31
70534;SHT31;58088;51.186;17.130;2023-03-01T07:31:36;5.88;57.44
70534;SHT31;58088;51.186;17.130;2023-03-01T07:34:02;5.90;57.72
70534;SHT31;58088;51.186;17.130;2023-03-01T07:36:29;5.95;57.68
70534;SHT31;58088;51.186;17.130;2023-03-01T07:38:55;5.99;57.53
70534;SHT31;58088;51.186;17.130;2023-03-01T07:41:24;6.03;57.40
70534;SHT31;58088;51.186;17.130;2023-03-01T07:43:50;6.12;57.17
70534;SHT31;58088;51.186;17.130;2023-03-01T07:46:16;6.24;56.99
70534;SHT31;58088;51.186;17.130;2023-03-01T07:48:44;6.41;56.32
70534;SHT31;58088;51.186;17.130;2023-03-01T07:51:10;6.62;56.17
70534;SHT31;58088;51.186;17.130;2023-03-01T07:53:37;6.67;55.99
70534;SHT31;58088;51.186;17.130;2023-03-01T07:56:04;6.65;56.19
70534;SHT31;58088;51.186;17.130;2023-03-01T07:58:43;6.68;55.92
70534;SHT31;58088;51.186;17.130;2023-03-01T08:01:11;6.80;56.07
70534;SHT31;58088;51.186;17.130;2023-03-01T08:03:41;6.86;55.52
70534;SHT31;58088;51.186;17.130;2023-03-01T08:06:09;6.88;55.14
70534;SHT31;58088;51.186;17.130;2023-03-01T08:08:37;6.88;54.36
70534;SHT31;58088;51.186;17.130;2023-03-01T08:11:05;6.87;54.32
70534;SHT31;58088;51.186;17.130;2023-03-01T08:13:33;6.93;53.96
70534;SHT31;58088;51.186;17.130;2023-03-01T08:18:36;7.03;54.72
70534;SHT31;58088;51.186;17.130;2023-03-01T08:21:03;7.10;54.58
70534;SHT31;58088;51.186;17.130;2023-03-01T08:23:39;7.10;54.56
70534;SHT31;58088;51.186;17.130;2023-03-01T08:26:07;7.05;54.89
70534;SHT31;58088;51.186;17.130;2023-03-01T08:28:37;7.06;54.93
70534;SHT31;58088;51.186;17.130;2023-03-01T08:31:18;6.98;54.73
70534;SHT31;58088;51.186;17.130;2023-03-01T08:33:55;6.96;54.55
70534;SHT31;58088;51.186;17.130;2023-03-01T08:36:26;6.95;54.38
70534;SHT31;58088;51.186;17.130;2023-03-01T08:38:56;6.98;53.93
70534;SHT31;58088;51.186;17.130;2023-03-01T08:41:23;6.99;53.98
70534;SHT31;58088;51.186;17.130;2023-03-01T08:43:50;7.02;54.18
70534;SHT31;58088;51.186;17.130;2023-03-01T08:46:18;7.04;54.02
70534;SHT31;58088;51.186;17.130;2023-03-01T08:48:44;6.99;53.16
70534;SHT31;58088;51.186;17.130;2023-03-01T08:51:12;6.92;52.92
70534;SHT31;58088;51.186;17.130;2023-03-01T08:53:43;6.92;53.04
70534;SHT31;58088;51.186;17.130;2023-03-01T08:56:10;6.96;52.76
70534;SHT31;58088;51.186;17.130;2023-03-01T08:58:37;6.89;52.14
70534;SHT31;58088;51.186;17.130;2023-03-01T09:01:08;6.86;51.62
70534;SHT31;58088;51.186;17.130;2023-03-01T09:03:38;6.89;51.23
70534;SHT31;58088;51.186;17.130;2023-03-01T09:06:04;7.00;50.64
70534;SHT31;58088;51.186;17.130;2023-03-01T09:08:37;6.99;49.57
70534;SHT31;58088;51.186;17.130;2023-03-01T09:11:07;7.08;49.71
70534;SHT31;58088;51.186;17.130;2023-03-01T09:13:37;7.15;50.13
70534;SHT31;58088;51.186;17.130;2023-03-01T09:16:04;7.15;50.00
70534;SHT31;58088;51.186;17.130;2023-03-01T09:18:33;7.15;49.38
70534;SHT31;58088;51.186;17.130;2023-03-01T09:21:02;7.16;48.43
70534;SHT31;58088;51.186;17.130;2023-03-01T09:23:35;7.18;48.64
70534;SHT31;58088;51.186;17.130;2023-03-01T09:26:05;7.26;49.29
70534;SHT31;58088;51.186;17.130;2023-03-01T09:28:35;7.34;49.26
70534;SHT31;58088;51.186;17.130;2023-03-01T09:31:02;7.39;49.42
70534;SHT31;58088;51.186;17.130;2023-03-01T09:33:30;7.45;49.56
70534;SHT31;58088;51.186;17.130;2023-03-01T09:35:59;7.49;50.19
70534;SHT31;58088;51.186;17.130;2023-03-01T09:38:27;7.55;50.22
70534;SHT31;58088;51.186;17.130;2023-03-01T09:40:55;7.59;49.55
70534;SHT31;58088;51.186;17.130;2023-03-01T09:46:02;7.78;49.14
70534;SHT31;58088;51.186;17.130;2023-03-01T09:48:37;7.89;48.49
70534;SHT31;58088;51.186;17.130;2023-03-01T09:51:12;7.92;48.25
70534;SHT31;58088;51.186;17.130;2023-03-01T09:53:47;7.85;48.24
70534;SHT31;58088;51.186;17.130;2023-03-01T09:56:20;7.89;48.53
70534;SHT31;58088;51.186;17.130;2023-03-01T09:59:23;7.95;48.53
70534;SHT31;58088;51.186;17.130;2023-03-01T10:02:01;7.85;48.07
70534;SHT31;58088;51.186;17.130;2023-03-01T10:08:19;7.71;48.34
70534;SHT31;58088;51.186;17.130;2023-03-01T10:11:03;7.72;48.30
70534;SHT31;58088;51.186;17.130;2023-03-01T10:14:01;7.70;48.18
70534;SHT31;58088;51.186;17.130;2023-03-01T10:17:03;7.75;48.74
70534;SHT31;58088;51.186;17.130;2023-03-01T10:19:39;7.80;48.51
70534;SHT31;58088;51.186;17.130;2023-03-01T10:24:54;7.94;48.58
70534;SHT31;58088;51.186;17.130;2023-03-01T10:27:25;7.96;47.87
70534;SHT31;58088;51.186;17.130;2023-03-01T10:30:38;7.93;47.70
70534;SHT31;58088;51.186;17.130;2023-03-01T10:33:16;7.92;47.85
70534;SHT31;58088;51.186;17.130;2023-03-01T10:35:49;7.92;47.53
70534;SHT31;58088;51.186;17.130;2023-03-01T10:38:16;7.88;47.14
70534;SHT31;58088;51.186;17.130;2023-03-01T10:40:50;7.80;47.18
70534;SHT31;58088;51.186;17.130;2023-03-01T10:43:53;7.69;47.41
70534;SHT31;58088;51.186;17.130;2023-03-01T10:46:33;7.61;47.69
70534;SHT31;58088;51.186;17.130;2023-03-01T10:51:52;7.49;47.27
70534;SHT31;58088;51.186;17.130;2023-03-01T10:54:22;7.52;47.66
70534;SHT31;58088;51.186;17.130;2023-03-01T10:57:02;7.58;47.82
70534;SHT31;58088;51.186;17.130;2023-03-01T10:59:34;7.66;48.19
70534;SHT31;58088;51.186;17.130;2023-03-01T11:05:22;7.75;47.37
70534;SHT31;58088;51.186;17.130;2023-03-01T11:10:22;7.92;47.02
70534;SHT31;58088;51.186;17.130;2023-03-01T11:13:14;7.94;46.33
70534;SHT31;58088;51.186;17.130;2023-03-01T11:16:05;7.93;46.60
70534;SHT31;58088;51.186;17.130;2023-03-01T11:18:37;7.94;46.10
70534;SHT31;58088;51.186;17.130;2023-03-01T11:21:05;7.95;45.43
70534;SHT31;58088;51.186;17.130;2023-03-01T11:23:34;8.00;45.09
70534;SHT31;58088;51.186;17.130;2023-03-01T11:26:05;8.06;45.44
70534;SHT31;58088;51.186;17.130;2023-03-01T11:28:35;8.16;45.28
70534;SHT31;58088;51.186;17.130;2023-03-01T11:31:08;8.22;45.53
70534;SHT31;58088;51.186;17.130;2023-03-01T11:33:53;8.24;44.80
70534;SHT31;58088;51.186;17.130;2023-03-01T11:36:49;8.33;44.26
70534;SHT31;58088;51.186;17.130;2023-03-01T11:42:18;8.28;40.96
70534;SHT31;58088;51.186;17.130;2023-03-01T11:44:58;8.22;40.43
70534;SHT31;58088;51.186;17.130;2023-03-01T11:53:09;8.12;40.79
70534;SHT31;58088;51.186;17.130;2023-03-01T11:56:10;8.02;39.42
70534;SHT31;58088;51.186;17.130;2023-03-01T11:59:13;7.92;39.44
70534;SHT31;58088;51.186;17.130;2023-03-01T12:02:18;8.00;41.22
70534;SHT31;58088;51.186;17.130;2023-03-01T12:22:07;8.21;44.67
70534;SHT31;58088;51.186;17.130;2023-03-01T12:33:39;8.20;45.07
70534;SHT31;58088;51.186;17.130;2023-03-01T12:42:54;8.26;45.56
70534;SHT31;58088;51.186;17.130;2023-03-01T12:51:56;8.24;45.52
70534;SHT31;58088;51.186;17.130;2023-03-01T12:54:42;8.28;46.01
70534;SHT31;58088;51.186;17.130;2023-03-01T13:03:31;8.27;44.77
70534;SHT31;58088;51.186;17.130;2023-03-01T13:23:09;8.25;45.73
70534;SHT31;58088;51.186;17.130;2023-03-01T13:44:28;8.30;45.39
70534;SHT31;58088;51.186;17.130;2023-03-01T13:49:55;8.22;44.50
70534;SHT31;58088;51.186;17.130;2023-03-01T13:52:38;8.23;45.08
70534;SHT31;58088;51.186;17.130;2023-03-01T13:57:47;8.24;44.85
70534;SHT31;58088;51.186;17.130;2023-03-01T14:00:37;8.26;45.03
70534;SHT31;58088;51.186;17.130;2023-03-01T14:03:08;8.24;45.01
70534;SHT31;58088;51.186;17.130;2023-03-01T14:06:01;8.24;45.57
70534;SHT31;58088;51.186;17.130;2023-03-01T14:08:36;8.27;45.53
70534;SHT31;58088;51.186;17.130;2023-03-01T14:11:25;8.31;45.56
70534;SHT31;58088;51.186;17.130;2023-03-01T14:20:23;8.30;45.89
70534;SHT31;58088;51.186;17.130;2023-03-01T14:22:57;8.29;46.25
70534;SHT31;58088;51.186;17.130;2023-03-01T14:28:21;8.32;46.08
70534;SHT31;58088;51.186;17.130;2023-03-01T14:30:53;8.32;45.99
70534;SHT31;58088;51.186;17.130;2023-03-01T14:36:01;8.29;45.63
70534;SHT31;58088;51.186;17.130;2023-03-01T14:38:33;8.30;45.41
70534;SHT31;58088;51.186;17.130;2023-03-01T14:41:13;8.28;45.62
70534;SHT31;58088;51.186;17.130;2023-03-01T14:43:44;8.27;45.74
70534;SHT31;58088;51.186;17.130;2023-03-01T14:46:23;8.25;45.79
70534;SHT31;58088;51.186;17.130;2023-03-01T14:48:58;8.22;45.62
70534;SHT31;58088;51.186;17.130;2023-03-01T14:51:38;8.23;45.97
70534;SHT31;58088;51.186;17.130;2023-03-01T14:57:17;8.24;45.95
70534;SHT31;58088;51.186;17.130;2023-03-01T14:59:54;8.22;45.91
70534;SHT31;58088;51.186;17.130;2023-03-01T15:02:26;8.21;46.26
70534;SHT31;58088;51.186;17.130;2023-03-01T15:04:55;8.19;46.33
70534;SHT31;58088;51.186;17.130;2023-03-01T15:07:31;8.17;47.03
70534;SHT31;58088;51.186;17.130;2023-03-01T15:10:04;8.19;47.45
70534;SHT31;58088;51.186;17.130;2023-03-01T15:12:40;8.20;47.48
70534;SHT31;58088;51.186;17.130;2023-03-01T15:15:21;8.19;47.40
70534;SHT31;58088;51.186;17.130;2023-03-01T15:18:13;8.17;47.58
70534;SHT31;58088;51.186;17.130;2023-03-01T15:20:47;8.14;47.40
70534;SHT31;58088;51.186;17.130;2023-03-01T15:23:34;8.13;47.51
70534;SHT31;58088;51.186;17.130;2023-03-01T15:26:05;8.12;47.66
70534;SHT31;58088;51.186;17.130;2023-03-01T15:28:37;8.08;47.47
70534;SHT31;58088;51.186;17.130;2023-03-01T15:31:21;8.06;47.21
70534;SHT31;58088;51.186;17.130;2023-03-01T15:34:07;8.06;47.53
70534;SHT31;58088;51.186;17.130;2023-03-01T15:36:49;8.05;47.75
70534;SHT31;58088;51.186;17.130;2023-03-01T15:39:35;8.01;47.53
70534;SHT31;58088;51.186;17.130;2023-03-01T15:47:52;7.97;47.57
70534;SHT31;58088;51.186;17.130;2023-03-01T15:50:32;7.94;47.58
70534;SHT31;58088;51.186;17.130;2023-03-01T15:53:11;7.92;47.60
70534;SHT31;58088;51.186;17.130;2023-03-01T15:55:40;7.89;47.59
70534;SHT31;58088;51.186;17.130;2023-03-01T15:58:18;7.83;47.76
70534;SHT31;58088;51.186;17.130;2023-03-01T16:00:48;7.73;47.92
70534;SHT31;58088;51.186;17.130;2023-03-01T16:03:22;7.65;47.90
70534;SHT31;58088;51.186;17.130;2023-03-01T16:05:48;7.57;47.99
70534;SHT31;58088;51.186;17.130;2023-03-01T16:08:16;7.50;48.30
70534;SHT31;58088;51.186;17.130;2023-03-01T16:10:44;7.44;48.49
70534;SHT31;58088;51.186;17.130;2023-03-01T16:13:14;7.41;48.82
70534;SHT31;58088;51.186;17.130;2023-03-01T16:15:40;7.37;49.09
70534;SHT31;58088;51.186;17.130;2023-03-01T16:18:07;7.35;49.29
70534;SHT31;58088;51.186;17.130;2023-03-01T16:20:36;7.35;49.53
70534;SHT31;58088;51.186;17.130;2023-03-01T16:23:04;7.31;49.96
70534;SHT31;58088;51.186;17.130;2023-03-01T16:25:34;7.23;50.73
70534;SHT31;58088;51.186;17.130;2023-03-01T16:28:02;7.10;51.51
70534;SHT31;58088;51.186;17.130;2023-03-01T16:30:34;7.01;51.68
70534;SHT31;58088;51.186;17.130;2023-03-01T16:33:01;6.97;51.75
70534;SHT31;58088;51.186;17.130;2023-03-01T16:35:32;6.91;51.83
70534;SHT31;58088;51.186;17.130;2023-03-01T16:37:59;6.83;52.03
70534;SHT31;58088;51.186;17.130;2023-03-01T16:40:27;6.76;52.22
70534;SHT31;58088;51.186;17.130;2023-03-01T16:42:55;6.69;52.00
70534;SHT31;58088;51.186;17.130;2023-03-01T16:45:27;6.59;51.65
70534;SHT31;58088;51.186;17.130;2023-03-01T16:48:01;6.52;51.50
70534;SHT31;58088;51.186;17.130;2023-03-01T16:50:29;6.44;51.20
70534;SHT31;58088;51.186;17.130;2023-03-01T16:52:55;6.36;51.36
70534;SHT31;58088;51.186;17.130;2023-03-01T16:55:22;6.28;51.56
70534;SHT31;58088;51.186;17.130;2023-03-01T16:57:48;6.21;51.78
70534;SHT31;58088;51.186;17.130;2023-03-01T17:00:16;6.17;52.03
70534;SHT31;58088;51.186;17.130;2023-03-01T17:02:43;6.11;52.39
70534;SHT31;58088;51.186;17.130;2023-03-01T17:05:10;6.04;52.88
70534;SHT31;58088;51.186;17.130;2023-03-01T17:07:37;5.92;53.58
70534;SHT31;58088;51.186;17.130;2023-03-01T17:10:06;5.79;54.07
70534;SHT31;58088;51.186;17.130;2023-03-01T17:12:35;5.70;54.38
70534;SHT31;58088;51.186;17.130;2023-03-01T17:15:03;5.64;54.47
70534;SHT31;58088;51.186;17.130;2023-03-01T17:17:31;5.57;54.57
70534;SHT31;58088;51.186;17.130;2023-03-01T17:19:58;5.52;54.70
70534;SHT31;58088;51.186;17.130;2023-03-01T17:22:24;5.47;54.81
70534;SHT31;58088;51.186;17.130;2023-03-01T17:24:51;5.43;54.92
70534;SHT31;58088;51.186;17.130;2023-03-01T17:27:19;5.38;54.95
70534;SHT31;58088;51.186;17.130;2023-03-01T17:29:46;5.29;55.22
70534;SHT31;58088;51.186;17.130;2023-03-01T17:32:12;5.23;55.43
70534;SHT31;58088;51.186;17.130;2023-03-01T17:34:40;5.15;55.56
70534;SHT31;58088;51.186;17.130;2023-03-01T17:37:06;5.12;55.44
70534;SHT31;58088;51.186;17.130;2023-03-01T17:39:33;5.07;55.51
70534;SHT31;58088;51.186;17.130;2023-03-01T17:42:01;5.04;55.70
70534;SHT31;58088;51.186;17.130;2023-03-01T17:44:31;4.96;55.85
70534;SHT31;58088;51.186;17.130;2023-03-01T17:46:59;4.89;55.78
70534;SHT31;58088;51.186;17.130;2023-03-01T17:49:28;4.83;55.97
70534;SHT31;58088;51.186;17.130;2023-03-01T17:51:56;4.75;56.07
70534;SHT31;58088;51.186;17.130;2023-03-01T17:54:23;4.68;56.00
70534;SHT31;58088;51.186;17.130;2023-03-01T17:56:51;4.64;56.20
70534;SHT31;58088;51.186;17.130;2023-03-01T17:59:18;4.58;56.63
70534;SHT31;58088;51.186;17.130;2023-03-01T18:01:45;4.51;57.16
70534;SHT31;58088;51.186;17.130;2023-03-01T18:04:12;4.44;57.12
70534;SHT31;58088;51.186;17.130;2023-03-01T18:06:39;4.38;57.10
70534;SHT31;58088;51.186;17.130;2023-03-01T18:09:06;4.28;57.00
70534;SHT31;58088;51.186;17.130;2023-03-01T18:11:33;4.20;57.01
70534;SHT31;58088;51.186;17.130;2023-03-01T18:14:01;4.12;57.15
70534;SHT31;58088;51.186;17.130;2023-03-01T18:16:28;4.06;57.23